sensor_id;sensor_type;location;lat;lon;timestamp;temperature;humidity
21176;DHT22;10746;50.178;8.186;2022-11-20T00:00:39;0.80;99.90
21176;DHT22;10746;50.178;8.186;2022-11-20T00:03:05;0.90;99.90
21176;DHT22;10746;50.178;8.186;2022-11-20T00:05:32;0.90;99.90
21176;DHT22;10746;50.178;8.186;2022-11-20T00:08:01;0.70;99.90
21176;DHT22;10746;50.178;8.186;2022-11-20T00:10:27;0.80;99.90
21176;DHT22;10746;50.178;8.186;2022-11-20T00:12:54;0.80;99.90
21176;DHT22;10746;50.178;8.186;2022-11-20T00:17:55;0.70;99.90
21176;DHT22;10746;50.178;8.186;2022-11-20T00:20:22;0.70;99.90
21176;DHT22;10746;50.178;8.186;2022-11-20T00:22:49;0.80;99.90
21176;DHT22;10746;50.178;8.186;2022-11-20T00:25:17;0.80;99.90
21176;DHT22;10746;50.178;8.186;2022-11-20T00:27:44;0.90;99.90
21176;DHT22;10746;50.178;8.186;2022-11-20T00:30:11;0.80;99.90
21176;DHT22;10746;50.178;8.186;2022-11-20T00:32:38;0.80;99.90
21176;DHT22;10746;50.178;8.186;2022-11-20T00:35:05;0.90;99.90
21176;DHT22;10746;50.178;8.186;2022-11-20T00:37:32;0.90;99.90
21176;DHT22;10746;50.178;8.186;2022-11-20T00:39:59;0.90;99.90
21176;DHT22;10746;50.178;8.186;2022-11-20T00:42:27;0.80;99.90
21176;DHT22;10746;50.178;8.186;2022-11-20T00:44:54;0.70;99.90
21176;DHT22;10746;50.178;8.186;2022-11-20T00:47:21;0.70;99.90
21176;DHT22;10746;50.178;8.186;2022-11-20T00:49:47;0.80;99.90
21176;DHT22;10746;50.178;8.186;2022-11-20T00:52:14;0.80;99.90
21176;DHT22;10746;50.178;8.186;2022-11-20T00:54:41;0.70;99.90
21176;DHT22;10746;50.178;8.186;2022-11-20T00:57:08;0.70;99.90
21176;DHT22;10746;50.178;8.186;2022-11-20T00:59:36;0.60;99.90
21176;DHT22;10746;50.178;8.186;2022-11-20T01:02:03;0.60;99.90
21176;DHT22;10746;50.178;8.186;2022-11-20T01:04:29;0.60;99.90
21176;DHT22;10746;50.178;8.186;2022-11-20T01:06:56;0.60;99.90
21176;DHT22;10746;50.178;8.186;2022-11-20T01:09:23;0.60;99.90
21176;DHT22;10746;50.178;8.186;2022-11-20T01:11:50;0.40;99.90
21176;DHT22;10746;50.178;8.186;2022-11-20T01:14:19;0.60;99.90
21176;DHT22;10746;50.178;8.186;2022-11-20T01:16:49;0.60;99.90
21176;DHT22;10746;50.178;8.186;2022-11-20T01:19:17;0.60;99.90
21176;DHT22;10746;50.178;8.186;2022-11-20T01:21:45;0.50;99.90
21176;DHT22;10746;50.178;8.186;2022-11-20T01:24:14;0.50;99.90
21176;DHT22;10746;50.178;8.186;2022-11-20T01:26:42;0.40;99.90
21176;DHT22;10746;50.178;8.186;2022-11-20T01:29:13;0.50;99.90
21176;DHT22;10746;50.178;8.186;2022-11-20T01:31:41;0.50;99.90
21176;DHT22;10746;50.178;8.186;2022-11-20T01:34:12;0.50;99.90
21176;DHT22;10746;50.178;8.186;2022-11-20T01:36:40;0.60;99.90
21176;DHT22;10746;50.178;8.186;2022-11-20T01:39:10;0.50;99.90
21176;DHT22;10746;50.178;8.186;2022-11-20T01:41:38;0.50;99.90
21176;DHT22;10746;50.178;8.186;2022-11-20T01:47:06;0.50;99.90
21176;DHT22;10746;50.178;8.186;2022-11-20T01:49:38;0.40;99.90
21176;DHT22;10746;50.178;8.186;2022-11-20T01:52:11;0.40;99.90
21176;DHT22;10746;50.178;8.186;2022-11-20T01:54:42;0.40;99.90
21176;DHT22;10746;50.178;8.186;2022-11-20T01:57:12;0.40;99.90
21176;DHT22;10746;50.178;8.186;2022-11-20T01:59:43;0.40;99.90
21176;DHT22;10746;50.178;8.186;2022-11-20T02:02:11;0.40;99.90
21176;DHT22;10746;50.178;8.186;2022-11-20T02:04:39;0.50;99.90
21176;DHT22;10746;50.178;8.186;2022-11-20T02:07:06;0.50;99.90
21176;DHT22;10746;50.178;8.186;2022-11-20T02:09:33;0.50;99.90
21176;DHT22;10746;50.178;8.186;2022-11-20T02:12:00;0.50;99.90
21176;DHT22;10746;50.178;8.186;2022-11-20T02:14:28;0.50;99.90
21176;DHT22;10746;50.178;8.186;2022-11-20T02:16:55;0.50;99.90
21176;DHT22;10746;50.178;8.186;2022-11-20T02:19:24;0.50;99.90
21176;DHT22;10746;50.178;8.186;2022-11-20T02:22:00;0.60;99.90
21176;DHT22;10746;50.178;8.186;2022-11-20T02:24:28;0.60;99.90
21176;DHT22;10746;50.178;8.186;2022-11-20T02:27:00;0.70;99.90
21176;DHT22;10746;50.178;8.186;2022-11-20T02:29:32;0.70;99.90
21176;DHT22;10746;50.178;8.186;2022-11-20T02:32:00;0.60;99.90
21176;DHT22;10746;50.178;8.186;2022-11-20T02:34:28;0.60;99.90
21176;DHT22;10746;50.178;8.186;2022-11-20T02:36:56;0.50;99.90
21176;DHT22;10746;50.178;8.186;2022-11-20T02:39:25;0.50;99.90
21176;DHT22;10746;50.178;8.186;2022-11-20T02:41:56;0.50;99.90
21176;DHT22;10746;50.178;8.186;2022-11-20T02:44:23;0.60;99.90
21176;DHT22;10746;50.178;8.186;2022-11-20T02:46:50;0.60;99.90
21176;DHT22;10746;50.178;8.186;2022-11-20T02:49:16;0.60;99.90
21176;DHT22;10746;50.178;8.186;2022-11-20T02:51:43;0.70;99.90
21176;DHT22;10746;50.178;8.186;2022-11-20T02:54:10;0.60;99.90
21176;DHT22;10746;50.178;8.186;2022-11-20T02:56:37;0.60;99.90
21176;DHT22;10746;50.178;8.186;2022-11-20T02:59:06;0.50;99.90
21176;DHT22;10746;50.178;8.186;2022-11-20T03:01:33;0.60;99.90
21176;DHT22;10746;50.178;8.186;2022-11-20T03:04:00;0.70;99.90
21176;DHT22;10746;50.178;8.186;2022-11-20T03:06:27;0.90;99.90
21176;DHT22;10746;50.178;8.186;2022-11-20T03:08:54;1.00;99.90
21176;DHT22;10746;50.178;8.186;2022-11-20T03:11:21;1.00;99.90
21176;DHT22;10746;50.178;8.186;2022-11-20T03:13:48;0.80;99.90
21176;DHT22;10746;50.178;8.186;2022-11-20T03:16:17;0.80;99.90
21176;DHT22;10746;50.178;8.186;2022-11-20T03:18:45;0.80;99.90
21176;DHT22;10746;50.178;8.186;2022-11-20T03:21:13;0.80;99.90
21176;DHT22;10746;50.178;8.186;2022-11-20T03:23:40;0.70;99.90
21176;DHT22;10746;50.178;8.186;2022-11-20T03:26:12;0.80;99.90
21176;DHT22;10746;50.178;8.186;2022-11-20T03:28:39;0.70;99.90
21176;DHT22;10746;50.178;8.186;2022-11-20T03:31:08;0.70;99.90
21176;DHT22;10746;50.178;8.186;2022-11-20T03:33:37;0.70;99.90
21176;DHT22;10746;50.178;8.186;2022-11-20T03:36:06;0.60;99.90
21176;DHT22;10746;50.178;8.186;2022-11-20T03:38:33;0.50;99.90
21176;DHT22;10746;50.178;8.186;2022-11-20T03:41:01;0.70;99.90
21176;DHT22;10746;50.178;8.186;2022-11-20T03:43:29;0.70;99.90
21176;DHT22;10746;50.178;8.186;2022-11-20T03:45:56;0.80;99.90
21176;DHT22;10746;50.178;8.186;2022-11-20T03:48:23;0.80;99.90
21176;DHT22;10746;50.178;8.186;2022-11-20T03:50:51;0.80;99.90
21176;DHT22;10746;50.178;8.186;2022-11-20T03:53:18;0.80;99.90
21176;DHT22;10746;50.178;8.186;2022-11-20T03:55:50;0.80;99.90
21176;DHT22;10746;50.178;8.186;2022-11-20T03:58:17;0.90;99.90
21176;DHT22;10746;50.178;8.186;2022-11-20T04:00:44;0.80;99.90
21176;DHT22;10746;50.178;8.186;2022-11-20T04:03:11;0.70;99.90
21176;DHT22;10746;50.178;8.186;2022-11-20T04:05:38;0.70;99.90
21176;DHT22;10746;50.178;8.186;2022-11-20T04:08:06;0.70;99.90
21176;DHT22;10746;50.178;8.186;2022-11-20T04:10:33;0.80;99.90
21176;DHT22;10746;50.178;8.186;2022-11-20T04:13:00;0.90;99.90
21176;DHT22;10746;50.178;8.186;2022-11-20T04:15:26;0.90;99.90
21176;DHT22;10746;50.178;8.186;2022-11-20T04:17:54;0.90;99.90
21176;DHT22;10746;50.178;8.186;2022-11-20T04:20:21;0.80;99.90
21176;DHT22;10746;50.178;8.186;2022-11-20T04:22:47;0.90;99.90
21176;DHT22;10746;50.178;8.186;2022-11-20T04:25:16;0.80;99.90
21176;DHT22;10746;50.178;8.186;2022-11-20T04:27:43;0.90;99.90
21176;DHT22;10746;50.178;8.186;2022-11-20T04:30:11;0.90;99.90
21176;DHT22;10746;50.178;8.186;2022-11-20T04:32:38;0.90;99.90
21176;DHT22;10746;50.178;8.186;2022-11-20T04:35:05;0.90;99.90
21176;DHT22;10746;50.178;8.186;2022-11-20T04:37:32;0.90;99.90
21176;DHT22;10746;50.178;8.186;2022-11-20T04:39:59;1.00;99.90
21176;DHT22;10746;50.178;8.186;2022-11-20T04:42:27;1.00;99.90
21176;DHT22;10746;50.178;8.186;2022-11-20T04:44:57;1.00;99.90
21176;DHT22;10746;50.178;8.186;2022-11-20T04:47:24;0.90;99.90
21176;DHT22;10746;50.178;8.186;2022-11-20T04:49:51;0.90;99.90
21176;DHT22;10746;50.178;8.186;2022-11-20T04:52:18;0.90;99.90
21176;DHT22;10746;50.178;8.186;2022-11-20T04:54:45;0.90;99.90
21176;DHT22;10746;50.178;8.186;2022-11-20T04:57:13;0.90;99.90
21176;DHT22;10746;50.178;8.186;2022-11-20T04:59:42;0.90;99.90
21176;DHT22;10746;50.178;8.186;2022-11-20T05:02:09;0.90;99.90
21176;DHT22;10746;50.178;8.186;2022-11-20T05:04:36;0.80;99.90
21176;DHT22;10746;50.178;8.186;2022-11-20T05:07:03;0.90;99.90
21176;DHT22;10746;50.178;8.186;2022-11-20T05:09:30;0.80;99.90
21176;DHT22;10746;50.178;8.186;2022-11-20T05:11:57;0.80;99.90
21176;DHT22;10746;50.178;8.186;2022-11-20T05:14:24;0.80;99.90
21176;DHT22;10746;50.178;8.186;2022-11-20T05:16:52;0.80;99.90
21176;DHT22;10746;50.178;8.186;2022-11-20T05:19:19;0.90;99.90
21176;DHT22;10746;50.178;8.186;2022-11-20T05:21:46;0.90;99.90
21176;DHT22;10746;50.178;8.186;2022-11-20T05:24:12;0.70;99.90
21176;DHT22;10746;50.178;8.186;2022-11-20T05:26:39;0.70;99.90
21176;DHT22;10746;50.178;8.186;2022-11-20T05:29:06;0.70;99.90
21176;DHT22;10746;50.178;8.186;2022-11-20T05:31:33;0.70;99.90
21176;DHT22;10746;50.178;8.186;2022-11-20T05:34:01;0.80;99.90
21176;DHT22;10746;50.178;8.186;2022-11-20T05:36:28;0.70;99.90
21176;DHT22;10746;50.178;8.186;2022-11-20T05:38:56;0.80;99.90
21176;DHT22;10746;50.178;8.186;2022-11-20T05:41:23;0.90;99.90
21176;DHT22;10746;50.178;8.186;2022-11-20T05:43:50;0.90;99.90
21176;DHT22;10746;50.178;8.186;2022-11-20T05:46:18;0.80;99.90
21176;DHT22;10746;50.178;8.186;2022-11-20T05:48:46;0.90;99.90
21176;DHT22;10746;50.178;8.186;2022-11-20T05:51:16;1.00;99.90
21176;DHT22;10746;50.178;8.186;2022-11-20T05:53:44;1.00;99.90
21176;DHT22;10746;50.178;8.186;2022-11-20T05:56:12;0.90;99.90
21176;DHT22;10746;50.178;8.186;2022-11-20T05:58:40;1.00;99.90
21176;DHT22;10746;50.178;8.186;2022-11-20T06:01:09;0.90;99.90
21176;DHT22;10746;50.178;8.186;2022-11-20T06:03:37;0.80;99.90
21176;DHT22;10746;50.178;8.186;2022-11-20T06:06:05;0.90;99.90
21176;DHT22;10746;50.178;8.186;2022-11-20T06:08:34;0.80;99.90
21176;DHT22;10746;50.178;8.186;2022-11-20T06:11:05;0.80;99.90
21176;DHT22;10746;50.178;8.186;2022-11-20T06:13:32;0.90;99.90
21176;DHT22;10746;50.178;8.186;2022-11-20T06:15:59;1.00;99.90
21176;DHT22;10746;50.178;8.186;2022-11-20T06:18:26;1.00;99.90
21176;DHT22;10746;50.178;8.186;2022-11-20T06:21:00;1.10;99.90
21176;DHT22;10746;50.178;8.186;2022-11-20T06:23:28;1.00;99.90
21176;DHT22;10746;50.178;8.186;2022-11-20T06:25:57;1.00;99.90
21176;DHT22;10746;50.178;8.186;2022-11-20T06:28:24;1.00;99.90
21176;DHT22;10746;50.178;8.186;2022-11-20T06:30:51;1.00;99.90
21176;DHT22;10746;50.178;8.186;2022-11-20T06:33:17;1.00;99.90
21176;DHT22;10746;50.178;8.186;2022-11-20T06:35:44;0.90;99.90
21176;DHT22;10746;50.178;8.186;2022-11-20T06:38:11;0.90;99.90
21176;DHT22;10746;50.178;8.186;2022-11-20T06:40:40;1.00;99.90
21176;DHT22;10746;50.178;8.186;2022-11-20T06:43:08;1.00;99.90
21176;DHT22;10746;50.178;8.186;2022-11-20T06:45:35;0.90;99.90
21176;DHT22;10746;50.178;8.186;2022-11-20T06:48:02;0.90;99.90
21176;DHT22;10746;50.178;8.186;2022-11-20T06:50:29;0.90;99.90
21176;DHT22;10746;50.178;8.186;2022-11-20T06:52:56;0.90;99.90
21176;DHT22;10746;50.178;8.186;2022-11-20T06:55:23;0.90;99.90
21176;DHT22;10746;50.178;8.186;2022-11-20T06:57:50;1.00;99.90
21176;DHT22;10746;50.178;8.186;2022-11-20T07:00:18;1.00;99.90
21176;DHT22;10746;50.178;8.186;2022-11-20T07:02:45;1.00;99.90
21176;DHT22;10746;50.178;8.186;2022-11-20T07:05:12;1.00;99.90
21176;DHT22;10746;50.178;8.186;2022-11-20T07:07:39;1.00;99.90
21176;DHT22;10746;50.178;8.186;2022-11-20T07:10:06;0.90;99.90
21176;DHT22;10746;50.178;8.186;2022-11-20T07:12:33;0.90;99.90
21176;DHT22;10746;50.178;8.186;2022-11-20T07:15:00;1.00;99.90
21176;DHT22;10746;50.178;8.186;2022-11-20T07:17:28;1.00;99.90
21176;DHT22;10746;50.178;8.186;2022-11-20T07:19:55;0.90;99.90
21176;DHT22;10746;50.178;8.186;2022-11-20T07:22:22;0.90;99.90
21176;DHT22;10746;50.178;8.186;2022-11-20T07:24:48;0.90;99.90
21176;DHT22;10746;50.178;8.186;2022-11-20T07:27:15;1.00;99.90
21176;DHT22;10746;50.178;8.186;2022-11-20T07:29:42;1.00;99.90
21176;DHT22;10746;50.178;8.186;2022-11-20T07:32:09;1.00;99.90
21176;DHT22;10746;50.178;8.186;2022-11-20T07:34:37;1.00;99.90
21176;DHT22;10746;50.178;8.186;2022-11-20T07:37:03;1.00;99.90
21176;DHT22;10746;50.178;8.186;2022-11-20T07:39:30;1.10;99.90
21176;DHT22;10746;50.178;8.186;2022-11-20T07:41:57;1.10;99.90
21176;DHT22;10746;50.178;8.186;2022-11-20T07:44:24;1.00;99.90
21176;DHT22;10746;50.178;8.186;2022-11-20T07:46:50;1.00;99.90
21176;DHT22;10746;50.178;8.186;2022-11-20T07:49:17;1.00;99.90
21176;DHT22;10746;50.178;8.186;2022-11-20T07:51:45;1.00;99.90
21176;DHT22;10746;50.178;8.186;2022-11-20T07:54:12;1.10;99.90
21176;DHT22;10746;50.178;8.186;2022-11-20T07:56:39;1.20;99.90
21176;DHT22;10746;50.178;8.186;2022-11-20T07:59:06;1.20;99.90
21176;DHT22;10746;50.178;8.186;2022-11-20T08:01:32;1.20;99.90
21176;DHT22;10746;50.178;8.186;2022-11-20T08:03:59;1.20;99.90
21176;DHT22;10746;50.178;8.186;2022-11-20T08:06:26;1.10;99.90
21176;DHT22;10746;50.178;8.186;2022-11-20T08:08:54;1.10;99.90
21176;DHT22;10746;50.178;8.186;2022-11-20T08:11:21;1.00;99.90
21176;DHT22;10746;50.178;8.186;2022-11-20T08:14:05;1.10;99.90
21176;DHT22;10746;50.178;8.186;2022-11-20T08:16:38;1.10;99.90
21176;DHT22;10746;50.178;8.186;2022-11-20T08:19:05;1.20;99.90
21176;DHT22;10746;50.178;8.186;2022-11-20T08:21:32;1.40;99.90
21176;DHT22;10746;50.178;8.186;2022-11-20T08:24:02;1.50;99.90
21176;DHT22;10746;50.178;8.186;2022-11-20T08:26:29;1.50;99.90
21176;DHT22;10746;50.178;8.186;2022-11-20T08:28:56;1.50;99.90
21176;DHT22;10746;50.178;8.186;2022-11-20T08:31:24;1.50;99.90
21176;DHT22;10746;50.178;8.186;2022-11-20T08:33:52;1.50;99.90
21176;DHT22;10746;50.178;8.186;2022-11-20T08:36:19;1.60;99.90
21176;DHT22;10746;50.178;8.186;2022-11-20T08:38:47;1.60;99.90
21176;DHT22;10746;50.178;8.186;2022-11-20T08:41:16;1.60;99.90
21176;DHT22;10746;50.178;8.186;2022-11-20T08:43:54;1.70;99.90
21176;DHT22;10746;50.178;8.186;2022-11-20T08:46:23;1.80;99.90
21176;DHT22;10746;50.178;8.186;2022-11-20T08:48:50;1.80;99.90
21176;DHT22;10746;50.178;8.186;2022-11-20T08:51:18;1.80;99.90
21176;DHT22;10746;50.178;8.186;2022-11-20T08:53:46;1.90;99.90
21176;DHT22;10746;50.178;8.186;2022-11-20T08:56:13;2.00;99.90
21176;DHT22;10746;50.178;8.186;2022-11-20T08:58:42;2.10;99.90
21176;DHT22;10746;50.178;8.186;2022-11-20T09:01:08;2.20;99.90
21176;DHT22;10746;50.178;8.186;2022-11-20T09:03:35;2.40;99.90
21176;DHT22;10746;50.178;8.186;2022-11-20T09:06:04;2.40;99.90
21176;DHT22;10746;50.178;8.186;2022-11-20T09:08:32;2.60;99.90
21176;DHT22;10746;50.178;8.186;2022-11-20T09:10:59;2.70;99.90
21176;DHT22;10746;50.178;8.186;2022-11-20T09:13:27;2.90;99.90
21176;DHT22;10746;50.178;8.186;2022-11-20T09:15:56;3.10;99.90
21176;DHT22;10746;50.178;8.186;2022-11-20T09:18:23;3.20;99.90
21176;DHT22;10746;50.178;8.186;2022-11-20T09:20:50;3.20;99.90
21176;DHT22;10746;50.178;8.186;2022-11-20T09:23:17;3.00;99.90
21176;DHT22;10746;50.178;8.186;2022-11-20T09:25:44;3.00;99.90
21176;DHT22;10746;50.178;8.186;2022-11-20T09:28:11;3.10;99.90
21176;DHT22;10746;50.178;8.186;2022-11-20T09:30:38;3.40;99.90
21176;DHT22;10746;50.178;8.186;2022-11-20T09:33:07;3.30;99.90
21176;DHT22;10746;50.178;8.186;2022-11-20T09:35:34;3.20;99.90
21176;DHT22;10746;50.178;8.186;2022-11-20T09:38:10;3.10;99.90
21176;DHT22;10746;50.178;8.186;2022-11-20T09:40:40;3.00;99.90
21176;DHT22;10746;50.178;8.186;2022-11-20T09:43:15;3.10;99.90
21176;DHT22;10746;50.178;8.186;2022-11-20T09:45:53;3.10;99.90
21176;DHT22;10746;50.178;8.186;2022-11-20T09:48:48;3.20;99.90
21176;DHT22;10746;50.178;8.186;2022-11-20T09:51:28;3.30;99.90
21176;DHT22;10746;50.178;8.186;2022-11-20T09:54:10;3.20;99.90
21176;DHT22;10746;50.178;8.186;2022-11-20T09:56:40;3.10;99.90
21176;DHT22;10746;50.178;8.186;2022-11-20T09:59:18;3.10;99.90
21176;DHT22;10746;50.178;8.186;2022-11-20T10:01:50;3.10;99.90
21176;DHT22;10746;50.178;8.186;2022-11-20T10:04:20;3.10;99.90
21176;DHT22;10746;50.178;8.186;2022-11-20T10:06:52;3.00;99.90
21176;DHT22;10746;50.178;8.186;2022-11-20T10:09:25;3.00;99.90
21176;DHT22;10746;50.178;8.186;2022-11-20T10:12:04;2.90;99.90
21176;DHT22;10746;50.178;8.186;2022-11-20T10:14:38;2.90;99.90
21176;DHT22;10746;50.178;8.186;2022-11-20T10:17:16;2.80;99.90
21176;DHT22;10746;50.178;8.186;2022-11-20T10:19:59;2.80;99.90
21176;DHT22;10746;50.178;8.186;2022-11-20T10:22:40;2.70;99.90
21176;DHT22;10746;50.178;8.186;2022-11-20T10:25:14;2.70;99.90
21176;DHT22;10746;50.178;8.186;2022-11-20T10:30:42;2.70;99.90
21176;DHT22;10746;50.178;8.186;2022-11-20T10:33:16;2.70;99.90
21176;DHT22;10746;50.178;8.186;2022-11-20T10:35:48;2.70;99.90
21176;DHT22;10746;50.178;8.186;2022-11-20T10:38:20;2.70;99.90
21176;DHT22;10746;50.178;8.186;2022-11-20T10:40:51;2.70;99.90
21176;DHT22;10746;50.178;8.186;2022-11-20T10:43:21;2.80;99.90
21176;DHT22;10746;50.178;8.186;2022-11-20T10:45:55;2.80;99.90
21176;DHT22;10746;50.178;8.186;2022-11-20T10:48:25;2.90;99.90
21176;DHT22;10746;50.178;8.186;2022-11-20T10:51:02;2.90;99.90
21176;DHT22;10746;50.178;8.186;2022-11-20T10:53:54;3.00;99.90
21176;DHT22;10746;50.178;8.186;2022-11-20T10:56:27;3.00;99.90
21176;DHT22;10746;50.178;8.186;2022-11-20T10:59:07;3.10;99.90
21176;DHT22;10746;50.178;8.186;2022-11-20T11:01:40;3.10;99.90
21176;DHT22;10746;50.178;8.186;2022-11-20T11:04:21;3.20;99.90
21176;DHT22;10746;50.178;8.186;2022-11-20T11:06:53;3.20;99.90
21176;DHT22;10746;50.178;8.186;2022-11-20T11:09:29;3.30;99.90
21176;DHT22;10746;50.178;8.186;2022-11-20T11:11:59;3.30;99.90
21176;DHT22;10746;50.178;8.186;2022-11-20T11:14:25;3.50;99.90
21176;DHT22;10746;50.178;8.186;2022-11-20T11:16:54;3.60;99.90
21176;DHT22;10746;50.178;8.186;2022-11-20T11:19:22;3.70;99.90
21176;DHT22;10746;50.178;8.186;2022-11-20T11:21:53;3.80;99.90
21176;DHT22;10746;50.178;8.186;2022-11-20T11:24:21;3.80;99.90
21176;DHT22;10746;50.178;8.186;2022-11-20T11:26:57;3.70;99.90
21176;DHT22;10746;50.178;8.186;2022-11-20T11:29:25;3.80;99.90
21176;DHT22;10746;50.178;8.186;2022-11-20T11:32:04;3.80;99.90
21176;DHT22;10746;50.178;8.186;2022-11-20T11:34:31;3.90;99.90
21176;DHT22;10746;50.178;8.186;2022-11-20T11:37:00;4.00;99.90
21176;DHT22;10746;50.178;8.186;2022-11-20T11:39:29;4.20;99.90
21176;DHT22;10746;50.178;8.186;2022-11-20T11:41:57;4.70;99.90
21176;DHT22;10746;50.178;8.186;2022-11-20T11:44:28;5.20;99.90
21176;DHT22;10746;50.178;8.186;2022-11-20T11:47:22;5.90;99.90
21176;DHT22;10746;50.178;8.186;2022-11-20T11:50:02;6.10;99.90
21176;DHT22;10746;50.178;8.186;2022-11-20T11:52:31;6.00;99.90
21176;DHT22;10746;50.178;8.186;2022-11-20T11:55:03;6.00;99.90
21176;DHT22;10746;50.178;8.186;2022-11-20T11:57:45;5.80;99.90
21176;DHT22;10746;50.178;8.186;2022-11-20T12:00:17;5.60;99.90
21176;DHT22;10746;50.178;8.186;2022-11-20T12:02:54;5.40;99.90
21176;DHT22;10746;50.178;8.186;2022-11-20T12:05:27;5.10;99.90
21176;DHT22;10746;50.178;8.186;2022-11-20T12:07:59;4.80;99.90
21176;DHT22;10746;50.178;8.186;2022-11-20T12:10:39;4.70;99.90
21176;DHT22;10746;50.178;8.186;2022-11-20T12:13:22;4.50;99.90
21176;DHT22;10746;50.178;8.186;2022-11-20T12:15:51;4.40;99.90
21176;DHT22;10746;50.178;8.186;2022-11-20T12:18:21;4.30;99.90
21176;DHT22;10746;50.178;8.186;2022-11-20T12:20:55;4.30;99.90
21176;DHT22;10746;50.178;8.186;2022-11-20T12:23:35;4.30;99.90
21176;DHT22;10746;50.178;8.186;2022-11-20T12:26:16;4.30;99.90
21176;DHT22;10746;50.178;8.186;2022-11-20T12:28:56;4.30;99.90
21176;DHT22;10746;50.178;8.186;2022-11-20T12:31:41;4.20;99.90
21176;DHT22;10746;50.178;8.186;2022-11-20T12:37:26;4.30;99.90
21176;DHT22;10746;50.178;8.186;2022-11-20T12:40:02;4.30;99.90
21176;DHT22;10746;50.178;8.186;2022-11-20T12:42:49;4.20;99.90
21176;DHT22;10746;50.178;8.186;2022-11-20T12:45:54;4.30;99.90
21176;DHT22;10746;50.178;8.186;2022-11-20T12:52:05;4.50;99.90
21176;DHT22;10746;50.178;8.186;2022-11-20T12:57:52;4.80;99.90
21176;DHT22;10746;50.178;8.186;2022-11-20T13:00:21;4.90;99.90
21176;DHT22;10746;50.178;8.186;2022-11-20T13:03:27;4.90;99.90
21176;DHT22;10746;50.178;8.186;2022-11-20T13:06:05;5.00;99.90
21176;DHT22;10746;50.178;8.186;2022-11-20T13:08:35;5.00;99.90
21176;DHT22;10746;50.178;8.186;2022-11-20T13:11:07;5.00;99.90
21176;DHT22;10746;50.178;8.186;2022-11-20T13:13:45;5.00;99.90
21176;DHT22;10746;50.178;8.186;2022-11-20T13:16:17;5.00;99.90
21176;DHT22;10746;50.178;8.186;2022-11-20T13:18:46;5.10;99.90
21176;DHT22;10746;50.178;8.186;2022-11-20T13:21:17;5.10;99.90
21176;DHT22;10746;50.178;8.186;2022-11-20T13:23:44;5.10;99.90
21176;DHT22;10746;50.178;8.186;2022-11-20T13:26:19;5.10;99.90
21176;DHT22;10746;50.178;8.186;2022-11-20T13:28:47;5.10;99.90
21176;DHT22;10746;50.178;8.186;2022-11-20T13:31:29;5.10;99.90
21176;DHT22;10746;50.178;8.186;2022-11-20T13:33:58;5.10;99.90
21176;DHT22;10746;50.178;8.186;2022-11-20T13:36:28;5.10;99.90
21176;DHT22;10746;50.178;8.186;2022-11-20T13:38:56;5.10;99.90
21176;DHT22;10746;50.178;8.186;2022-11-20T13:41:25;5.20;99.90
21176;DHT22;10746;50.178;8.186;2022-11-20T13:43:59;5.10;99.90
21176;DHT22;10746;50.178;8.186;2022-11-20T13:46:38;5.10;99.90
21176;DHT22;10746;50.178;8.186;2022-11-20T13:49:14;5.10;99.90
21176;DHT22;10746;50.178;8.186;2022-11-20T13:51:44;5.20;99.90
21176;DHT22;10746;50.178;8.186;2022-11-20T13:54:46;5.20;99.90
21176;DHT22;10746;50.178;8.186;2022-11-20T13:57:42;5.00;99.90
21176;DHT22;10746;50.178;8.186;2022-11-20T14:00:15;4.90;99.90
21176;DHT22;10746;50.178;8.186;2022-11-20T14:02:42;4.90;99.90
21176;DHT22;10746;50.178;8.186;2022-11-20T14:05:19;4.80;99.90
21176;DHT22;10746;50.178;8.186;2022-11-20T14:07:47;4.60;99.90
21176;DHT22;10746;50.178;8.186;2022-11-20T14:10:24;4.60;99.90
21176;DHT22;10746;50.178;8.186;2022-11-20T14:12:52;4.50;99.90
21176;DHT22;10746;50.178;8.186;2022-11-20T14:15:29;4.50;99.90
21176;DHT22;10746;50.178;8.186;2022-11-20T14:17:56;4.50;99.90
21176;DHT22;10746;50.178;8.186;2022-11-20T14:20:25;4.40;99.90
21176;DHT22;10746;50.178;8.186;2022-11-20T14:22:53;4.40;99.90
21176;DHT22;10746;50.178;8.186;2022-11-20T14:25:22;4.40;99.90
21176;DHT22;10746;50.178;8.186;2022-11-20T14:27:54;4.40;99.90
21176;DHT22;10746;50.178;8.186;2022-11-20T14:30:24;4.40;99.90
21176;DHT22;10746;50.178;8.186;2022-11-20T14:32:53;4.40;99.90
21176;DHT22;10746;50.178;8.186;2022-11-20T14:35:25;4.30;99.90
21176;DHT22;10746;50.178;8.186;2022-11-20T14:37:54;4.30;99.90
21176;DHT22;10746;50.178;8.186;2022-11-20T14:40:27;4.30;99.90
21176;DHT22;10746;50.178;8.186;2022-11-20T14:42:57;4.20;99.90
21176;DHT22;10746;50.178;8.186;2022-11-20T14:45:25;4.20;99.90
21176;DHT22;10746;50.178;8.186;2022-11-20T14:47:54;4.20;99.90
21176;DHT22;10746;50.178;8.186;2022-11-20T14:50:23;4.20;99.90
21176;DHT22;10746;50.178;8.186;2022-11-20T14:52:53;4.20;99.90
21176;DHT22;10746;50.178;8.186;2022-11-20T14:55:30;4.20;99.90
21176;DHT22;10746;50.178;8.186;2022-11-20T14:58:00;4.20;99.90
21176;DHT22;10746;50.178;8.186;2022-11-20T15:00:28;4.10;99.90
21176;DHT22;10746;50.178;8.186;2022-11-20T15:02:56;4.10;99.90
21176;DHT22;10746;50.178;8.186;2022-11-20T15:05:25;4.10;99.90
21176;DHT22;10746;50.178;8.186;2022-11-20T15:08:05;4.10;99.90
21176;DHT22;10746;50.178;8.186;2022-11-20T15:10:32;4.00;99.90
21176;DHT22;10746;50.178;8.186;2022-11-20T15:13:03;4.00;99.90
21176;DHT22;10746;50.178;8.186;2022-11-20T15:15:32;4.00;99.90
21176;DHT22;10746;50.178;8.186;2022-11-20T15:18:00;4.00;99.90
21176;DHT22;10746;50.178;8.186;2022-11-20T15:20:29;4.00;99.90
21176;DHT22;10746;50.178;8.186;2022-11-20T15:22:56;4.10;99.90
21176;DHT22;10746;50.178;8.186;2022-11-20T15:25:23;4.00;99.90
21176;DHT22;10746;50.178;8.186;2022-11-20T15:27:53;4.00;99.90
21176;DHT22;10746;50.178;8.186;2022-11-20T15:30:22;4.00;99.90
21176;DHT22;10746;50.178;8.186;2022-11-20T15:32:49;4.00;99.90
21176;DHT22;10746;50.178;8.186;2022-11-20T15:35:16;4.00;99.90
21176;DHT22;10746;50.178;8.186;2022-11-20T15:37:44;4.10;99.90
21176;DHT22;10746;50.178;8.186;2022-11-20T15:40:11;4.10;99.90
21176;DHT22;10746;50.178;8.186;2022-11-20T15:42:38;4.00;99.90
21176;DHT22;10746;50.178;8.186;2022-11-20T15:45:28;4.00;99.90
21176;DHT22;10746;50.178;8.186;2022-11-20T15:47:57;4.00;99.90
21176;DHT22;10746;50.178;8.186;2022-11-20T15:50:27;4.00;99.90
21176;DHT22;10746;50.178;8.186;2022-11-20T15:52:55;4.00;99.90
21176;DHT22;10746;50.178;8.186;2022-11-20T15:55:22;4.10;99.90
21176;DHT22;10746;50.178;8.186;2022-11-20T15:57:49;4.00;99.90
21176;DHT22;10746;50.178;8.186;2022-11-20T16:00:16;4.10;99.90
21176;DHT22;10746;50.178;8.186;2022-11-20T16:02:45;4.00;99.90
21176;DHT22;10746;50.178;8.186;2022-11-20T16:05:12;4.00;99.90
21176;DHT22;10746;50.178;8.186;2022-11-20T16:07:40;4.00;99.90
21176;DHT22;10746;50.178;8.186;2022-11-20T16:10:07;4.00;99.90
21176;DHT22;10746;50.178;8.186;2022-11-20T16:12:34;4.00;99.90
21176;DHT22;10746;50.178;8.186;2022-11-20T16:15:20;4.00;99.90
21176;DHT22;10746;50.178;8.186;2022-11-20T16:18:08;4.00;99.90
21176;DHT22;10746;50.178;8.186;2022-11-20T16:20:36;4.00;99.90